< < Back
Terminal Aerodrome Forecast


Current Version              Previous Versions:   1  2  3  4  5  6  7  8  9  

Terminal Aerodrome Forecast

814
FTUS42 KCHS 201700
TAFSAV
TAF
KSAV 201728Z 2018/2118 02012G18KT P6SM SCT020 BKN040
     FM210200 34008KT P6SM SCT015 BKN035
     FM211200 32008KT P6SM SCT045=

Latest METAR

158
SAUS80 KWBC 210400 RRC
MTRSAV
METAR KSAV 210353Z 32005KT 10SM SCT150 22/17 A2996 RMK AO2 SLP146 LAST
AUGMENTED OBSERVATION UNTIL 1000Z T02170167 $


USA.gov is the U.S. government's official web portal to all federal, state and local government web resources and services.